createdAt,value
2018-04-10T00:01:11.561Z,16.83
2018-04-10T00:03:39.070Z,21.50
2018-04-10T00:06:07.337Z,16.90
2018-04-10T00:08:34.847Z,18.43
2018-04-10T00:11:03.099Z,16.53
2018-04-10T00:13:30.611Z,20.63
2018-04-10T00:15:58.871Z,15.70
2018-04-10T00:18:26.391Z,16.00
2018-04-10T00:20:53.892Z,18.37
2018-04-10T00:23:21.401Z,17.20
2018-04-10T00:25:49.658Z,14.60
2018-04-10T00:28:17.170Z,16.07
2018-04-10T00:30:45.428Z,16.47
2018-04-10T00:33:12.956Z,20.20
2018-04-10T00:35:40.446Z,21.03
2018-04-10T00:38:07.945Z,16.13
2018-04-10T00:40:35.438Z,15.83
2018-04-10T00:43:03.709Z,14.53
2018-04-10T00:45:31.203Z,14.07
2018-04-10T00:47:58.711Z,19.53
2018-04-10T00:50:26.203Z,15.00
2018-04-10T00:52:53.722Z,21.97
2018-04-10T00:55:21.222Z,19.77
2018-04-10T00:57:48.734Z,17.40
2018-04-10T01:00:17.003Z,15.80
2018-04-10T01:02:44.626Z,15.30
2018-04-10T01:05:12.140Z,16.43
2018-04-10T01:07:39.634Z,19.37
2018-04-10T01:10:07.137Z,14.90
2018-04-10T01:12:34.621Z,14.17
2018-04-10T01:15:02.146Z,24.90
2018-04-10T01:17:29.634Z,21.17
2018-04-10T01:19:57.143Z,19.70
2018-04-10T01:22:24.630Z,17.60
2018-04-10T01:24:52.143Z,18.33
2018-04-10T01:27:19.644Z,18.23
2018-04-10T01:29:47.154Z,18.43
2018-04-10T01:32:14.781Z,16.50
2018-04-10T01:34:42.305Z,19.37
2018-04-10T01:37:09.878Z,15.27
2018-04-10T01:39:37.393Z,18.13
2018-04-10T01:42:04.878Z,16.30
2018-04-10T01:44:32.385Z,18.80
2018-04-10T01:46:59.873Z,14.47
2018-04-10T01:49:28.149Z,20.60
2018-04-10T01:51:55.644Z,15.87
2018-04-10T01:54:23.159Z,17.20
2018-04-10T01:56:50.656Z,16.77
2018-04-10T01:59:18.177Z,17.33
2018-04-10T02:01:46.439Z,16.27
2018-04-10T02:04:13.958Z,16.20
2018-04-10T02:06:41.447Z,17.43
2018-04-10T02:09:08.957Z,19.53
2018-04-10T02:11:36.452Z,22.63
2018-04-10T02:14:03.967Z,16.60
2018-04-10T02:16:31.466Z,16.50
2018-04-10T02:18:58.966Z,15.23
2018-04-10T02:21:26.474Z,14.63
2018-04-10T02:23:53.963Z,15.50
2018-04-10T02:26:22.247Z,15.37
2018-04-10T02:28:50.506Z,16.30
2018-04-10T02:31:18.027Z,16.87
2018-04-10T02:33:45.525Z,13.87
2018-04-10T02:36:13.044Z,12.60
2018-04-10T02:38:41.302Z,18.17
2018-04-10T02:41:08.810Z,14.20
2018-04-10T02:43:37.073Z,14.53
2018-04-10T02:46:04.588Z,19.23
2018-04-10T02:48:32.087Z,14.97
2018-04-10T02:50:59.616Z,16.87
2018-04-10T02:53:27.866Z,17.60
2018-04-10T02:55:55.374Z,21.93
2018-04-10T02:58:22.870Z,16.30
2018-04-10T03:00:50.385Z,23.10
2018-04-10T03:03:17.876Z,20.37
2018-04-10T03:05:46.151Z,18.93
2018-04-10T03:08:13.642Z,18.20
2018-04-10T03:10:41.157Z,18.50
2018-04-10T03:13:08.660Z,16.77
2018-04-10T03:15:36.956Z,14.30
2018-04-10T03:18:04.448Z,15.43
2018-04-10T03:20:31.949Z,18.03
2018-04-10T03:22:59.463Z,14.30
2018-04-10T03:25:27.722Z,21.13
2018-04-10T03:27:55.236Z,20.97
2018-04-10T03:30:23.493Z,17.50
2018-04-10T03:32:51.019Z,14.47
2018-04-10T03:35:18.515Z,14.40
2018-04-10T03:37:46.031Z,12.63
2018-04-10T03:40:14.399Z,17.53
2018-04-10T03:42:41.906Z,16.23
2018-04-10T03:45:09.398Z,15.77
2018-04-10T03:47:36.909Z,13.83
2018-04-10T03:50:04.401Z,15.27
2018-04-10T03:52:32.685Z,11.80
2018-04-10T03:55:00.950Z,14.87
2018-04-10T03:57:28.470Z,13.63
2018-04-10T03:59:55.954Z,13.80
2018-04-10T04:02:23.474Z,12.63
2018-04-10T04:04:50.962Z,17.10
2018-04-10T04:07:19.246Z,16.30
2018-04-10T04:09:47.515Z,16.73
2018-04-10T04:12:15.034Z,17.63
2018-04-10T04:14:42.523Z,15.03
2018-04-10T04:17:21.667Z,11.97
2018-04-10T04:20:01.808Z,12.50
2018-04-10T04:22:35.151Z,18.10
2018-04-10T04:25:02.650Z,14.23
2018-04-10T04:27:30.170Z,15.10
2018-04-10T04:29:57.665Z,12.93
2018-04-10T04:32:25.186Z,14.07
2018-04-10T04:34:53.455Z,16.83
2018-04-10T04:37:21.715Z,14.30
2018-04-10T04:39:49.231Z,15.90
2018-04-10T04:42:17.487Z,10.57
2018-04-10T04:44:45.003Z,11.37
2018-04-10T04:47:12.494Z,16.07
2018-04-10T04:49:40.015Z,16.20
2018-04-10T04:52:07.516Z,18.40
2018-04-10T04:54:35.022Z,11.53
2018-04-10T04:57:02.521Z,12.33
2018-04-10T04:59:30.030Z,14.53
2018-04-10T05:01:57.528Z,12.90
2018-04-10T05:04:25.047Z,15.20
2018-04-10T05:06:53.305Z,11.17
2018-04-10T05:09:20.802Z,9.40
2018-04-10T05:11:49.061Z,15.23
2018-04-10T05:14:16.575Z,21.27
2018-04-10T05:16:44.064Z,31.80
2018-04-10T05:19:11.625Z,34.47
2018-04-10T05:21:39.869Z,36.53
2018-04-10T05:24:07.383Z,32.70
2018-04-10T05:26:34.869Z,64.10
2018-04-10T05:29:02.394Z,52.20
2018-04-10T05:31:30.663Z,33.57
2018-04-10T05:33:58.152Z,26.13
2018-04-10T05:36:25.671Z,25.87
2018-04-10T05:38:53.171Z,22.90
2018-04-10T05:41:20.700Z,22.57
2018-04-10T05:43:48.194Z,24.80
2018-04-10T05:46:15.707Z,20.80
2018-04-10T05:48:44.021Z,21.30
2018-04-10T05:51:11.540Z,20.60
2018-04-10T05:53:39.037Z,24.03
2018-04-10T05:56:06.555Z,17.53
2018-04-10T05:58:34.052Z,18.13
2018-04-10T06:01:01.580Z,20.10
2018-04-10T06:03:29.080Z,18.07
2018-04-10T06:05:56.599Z,24.27
2018-04-10T06:08:24.086Z,20.63
2018-04-10T06:10:51.604Z,20.80
2018-04-10T06:13:19.100Z,21.70
2018-04-10T06:15:46.662Z,16.23
2018-04-10T06:18:14.126Z,15.50
2018-04-10T06:20:41.655Z,19.43
2018-04-10T06:23:09.142Z,27.00
2018-04-10T06:25:36.660Z,25.67
2018-04-10T06:28:04.918Z,19.07
2018-04-10T06:30:32.436Z,20.43
2018-04-10T06:32:59.926Z,18.00
2018-04-10T06:35:27.415Z,16.10
2018-04-10T06:37:54.939Z,14.87
2018-04-10T06:40:22.435Z,20.47
2018-04-10T06:42:49.945Z,21.60
2018-04-10T06:45:17.905Z,14.80
2018-04-10T06:47:45.418Z,21.60
2018-04-10T06:50:13.679Z,16.83
2018-04-10T06:52:41.203Z,17.60
2018-04-10T06:55:08.695Z,19.73
2018-04-10T06:57:36.198Z,15.80
2018-04-10T07:00:03.700Z,16.70
2018-04-10T07:02:31.216Z,21.97
2018-04-10T07:04:58.711Z,15.77
2018-04-10T07:07:26.235Z,19.27
2018-04-10T07:09:53.740Z,23.80
2018-04-10T07:12:21.264Z,20.97
2018-04-10T07:14:48.763Z,25.77
2018-04-10T07:17:16.279Z,15.70
2018-04-10T07:19:44.535Z,20.03
2018-04-10T07:22:12.041Z,18.87
2018-04-10T07:24:40.301Z,28.03
2018-04-10T07:27:07.815Z,25.23
2018-04-10T07:29:35.311Z,18.10
2018-04-10T07:32:02.817Z,23.20
2018-04-10T07:34:30.302Z,26.80
2018-04-10T07:36:57.796Z,38.93
2018-04-10T07:39:25.305Z,26.03
2018-04-10T07:41:52.800Z,27.83
2018-04-10T07:44:20.319Z,22.67
2018-04-10T07:46:47.824Z,24.10
2018-04-10T07:49:15.342Z,26.10
2018-04-10T07:51:42.839Z,23.93
2018-04-10T07:54:10.372Z,25.00
2018-04-10T07:56:38.626Z,28.27
2018-04-10T07:59:06.130Z,24.50
2018-04-10T08:01:34.403Z,24.67
2018-04-10T08:04:01.914Z,24.20
2018-04-10T08:06:29.408Z,19.63
2018-04-10T08:08:56.923Z,22.60
2018-04-10T08:11:24.414Z,26.70
2018-04-10T08:13:52.691Z,30.80
2018-04-10T08:16:20.960Z,27.27
2018-04-10T08:18:48.476Z,22.00
2018-04-10T08:21:15.979Z,25.80
2018-04-10T08:23:43.493Z,19.93
2018-04-10T08:26:11.751Z,19.50
2018-04-10T08:28:39.267Z,22.70
2018-04-10T08:31:06.763Z,24.20
2018-04-10T08:33:34.255Z,20.03
2018-04-10T08:36:01.774Z,23.93
2018-04-10T08:38:29.267Z,23.90
2018-04-10T08:40:56.774Z,25.67
2018-04-10T08:43:24.285Z,22.23
2018-04-10T08:45:51.807Z,25.47
2018-04-10T08:48:19.308Z,27.87
2018-04-10T08:50:47.590Z,20.07
2018-04-10T08:53:15.846Z,28.23
2018-04-10T08:55:43.367Z,24.63
2018-04-10T08:58:10.861Z,28.13
2018-04-10T09:00:38.385Z,30.43
2018-04-10T09:03:06.668Z,27.07
2018-04-10T09:05:34.182Z,25.97
2018-04-10T09:08:02.466Z,26.27
2018-04-10T09:10:29.991Z,24.37
2018-04-10T09:12:57.494Z,29.03
2018-04-10T09:15:25.033Z,29.27
2018-04-10T09:17:52.535Z,25.03
2018-04-10T09:20:20.061Z,32.33
2018-04-10T09:22:47.550Z,24.43
2018-04-10T09:25:15.071Z,30.63
2018-04-10T09:27:42.608Z,30.53
2018-04-10T09:30:10.871Z,36.30
2018-04-10T09:32:38.384Z,25.17
2018-04-10T09:35:05.891Z,30.00
2018-04-10T09:37:33.409Z,37.07
2018-04-10T09:40:01.682Z,31.80
2018-04-10T09:42:29.202Z,37.47
2018-04-10T09:44:57.463Z,34.57
2018-04-10T09:47:25.002Z,31.43
2018-04-10T09:49:52.509Z,33.97
2018-04-10T09:52:20.035Z,27.93
2018-04-10T09:54:47.524Z,26.80
2018-04-10T09:57:15.045Z,24.87
2018-04-10T09:59:42.551Z,26.00
2018-04-10T10:02:10.076Z,27.30
2018-04-10T10:04:37.577Z,24.63
2018-04-10T10:07:05.108Z,24.93
2018-04-10T10:09:32.607Z,25.70
2018-04-10T10:12:00.131Z,25.60
2018-04-10T10:14:28.390Z,22.80
2018-04-10T10:16:55.902Z,23.87
2018-04-10T10:19:23.404Z,26.07
2018-04-10T10:21:50.919Z,22.53
2018-04-10T10:24:18.422Z,23.00
2018-04-10T10:26:45.935Z,28.17
2018-04-10T10:29:13.458Z,19.10
2018-04-10T10:31:40.954Z,20.73
2018-04-10T10:34:08.485Z,13.77
2018-04-10T10:36:36.000Z,13.97
2018-04-10T10:39:03.528Z,16.23
2018-04-10T10:41:31.035Z,17.33
2018-04-10T10:43:58.552Z,11.70
2018-04-10T10:46:26.042Z,12.80
2018-04-10T10:48:53.562Z,12.53
2018-04-10T10:51:21.059Z,14.97
2018-04-10T10:53:48.566Z,11.93
2018-04-10T10:56:16.063Z,10.00
2018-04-10T10:58:43.566Z,12.50
2018-04-10T11:01:11.064Z,10.83
2018-04-10T11:03:39.343Z,20.97
2018-04-10T11:06:07.599Z,12.00
2018-04-10T11:08:35.120Z,14.83
2018-04-10T11:11:02.606Z,13.60
2018-04-10T11:13:30.117Z,11.97
2018-04-10T11:15:57.611Z,11.90
2018-04-10T11:18:25.884Z,14.60
2018-04-10T11:20:53.379Z,14.20
2018-04-10T11:23:21.652Z,9.87
2018-04-10T11:25:49.912Z,13.87
2018-04-10T11:28:17.435Z,10.67
2018-04-10T11:30:44.951Z,8.83
2018-04-10T11:33:12.436Z,9.10
2018-04-10T11:35:39.963Z,8.63
2018-04-10T11:38:07.450Z,8.40
2018-04-10T11:40:34.963Z,12.63
2018-04-10T11:43:03.218Z,8.60
2018-04-10T11:45:30.736Z,13.80
2018-04-10T11:47:58.989Z,6.73
2018-04-10T11:50:26.497Z,5.43
2018-04-10T11:52:53.981Z,7.20
2018-04-10T11:55:21.495Z,4.60
2018-04-10T11:57:48.986Z,5.93
2018-04-10T12:00:16.490Z,7.57
2018-04-10T12:02:43.986Z,7.07
2018-04-10T12:05:11.492Z,8.20
2018-04-10T12:07:38.981Z,7.47
2018-04-10T12:10:06.509Z,6.43
2018-04-10T12:12:34.001Z,5.77
2018-04-10T12:15:01.507Z,4.30
2018-04-10T12:17:28.986Z,5.07
2018-04-10T12:19:56.483Z,5.90
2018-04-10T12:22:24.010Z,7.53
2018-04-10T12:24:52.264Z,12.47
2018-04-10T12:27:19.780Z,6.20
2018-04-10T12:29:47.274Z,6.53
2018-04-10T12:32:14.787Z,4.10
2018-04-10T12:34:42.280Z,5.43
2018-04-10T12:37:10.098Z,3.80
2018-04-10T12:39:37.583Z,3.70
2018-04-10T12:42:05.094Z,5.27
2018-04-10T12:44:32.586Z,4.73
2018-04-10T12:47:00.092Z,5.23
2018-04-10T12:49:27.593Z,22.53
2018-04-10T12:51:55.102Z,9.80
2018-04-10T12:54:22.586Z,4.77
2018-04-10T12:56:50.090Z,5.93
2018-04-10T12:59:17.570Z,6.53
2018-04-10T13:01:45.856Z,5.77
2018-04-10T13:04:14.121Z,7.00
2018-04-10T13:06:41.617Z,2.97
2018-04-10T13:09:09.871Z,3.67
2018-04-10T13:11:37.373Z,5.17
2018-04-10T13:14:05.635Z,6.43
2018-04-10T13:16:33.147Z,3.60
2018-04-10T13:19:01.407Z,6.07
2018-04-10T13:21:28.909Z,4.43
2018-04-10T13:23:56.425Z,8.40
2018-04-10T13:26:23.910Z,4.97
2018-04-10T13:28:51.427Z,4.67
2018-04-10T13:31:18.915Z,6.40
2018-04-10T13:33:46.426Z,5.00
2018-04-10T13:36:13.911Z,5.20
2018-04-10T13:38:42.184Z,5.53
2018-04-10T13:41:09.682Z,3.93
2018-04-10T13:43:37.992Z,3.30
2018-04-10T13:46:05.467Z,6.40
2018-04-10T13:48:33.751Z,5.83
2018-04-10T13:51:01.232Z,5.23
2018-04-10T13:53:28.743Z,2.87
2018-04-10T13:55:56.231Z,3.90
2018-04-10T13:58:24.515Z,2.93
2018-04-10T14:00:52.776Z,4.20
2018-04-10T14:03:20.283Z,5.40
2018-04-10T14:05:48.535Z,4.27
2018-04-10T14:08:16.044Z,4.20
2018-04-10T14:10:44.299Z,8.00
2018-04-10T14:13:11.807Z,4.80
2018-04-10T14:15:39.302Z,3.00
2018-04-10T14:18:06.786Z,3.90
2018-04-10T14:20:34.290Z,3.20
2018-04-10T14:23:01.803Z,31.27
2018-04-10T14:25:29.310Z,4.83
2018-04-10T14:27:56.799Z,3.33
2018-04-10T14:30:24.312Z,2.50
2018-04-10T14:32:51.806Z,2.00
2018-04-10T14:35:19.319Z,5.10
2018-04-10T14:37:46.798Z,5.13
2018-04-10T14:40:15.083Z,3.40
2018-04-10T14:42:43.334Z,9.90
2018-04-10T14:45:10.879Z,5.67
2018-04-10T14:47:38.371Z,3.73
2018-04-10T14:50:05.887Z,3.67
2018-04-10T14:52:34.134Z,3.00
2018-04-10T14:55:01.647Z,4.53
2018-04-10T14:57:29.911Z,8.47
2018-04-10T14:59:57.426Z,2.20
2018-04-10T15:02:24.911Z,3.07
2018-04-10T15:04:52.423Z,2.43
2018-04-10T15:07:19.915Z,3.00
2018-04-10T15:09:48.190Z,3.27
2018-04-10T15:12:15.691Z,3.10
2018-04-10T15:14:43.205Z,5.60
2018-04-10T15:17:10.695Z,3.90
2018-04-10T15:19:38.219Z,15.87
2018-04-10T15:22:05.722Z,8.70
2018-04-10T15:24:33.239Z,3.43
2018-04-10T15:27:00.734Z,3.17
2018-04-10T15:29:28.227Z,3.43
2018-04-10T15:31:55.738Z,3.40
2018-04-10T15:34:23.991Z,4.97
2018-04-10T15:36:51.526Z,4.30
2018-04-10T15:39:19.010Z,4.30
2018-04-10T15:41:46.502Z,4.33
2018-04-10T15:44:14.211Z,2.93
2018-04-10T15:46:41.704Z,2.70
2018-04-10T15:49:09.185Z,6.13
2018-04-10T15:51:36.692Z,4.20
2018-04-10T15:54:04.187Z,2.60
2018-04-10T15:56:32.469Z,4.70
2018-04-10T15:59:00.731Z,4.27
2018-04-10T16:01:28.241Z,3.07
2018-04-10T16:03:56.498Z,2.30
2018-04-10T16:06:24.015Z,3.00
2018-04-10T16:08:51.498Z,3.60
2018-04-10T16:11:19.007Z,3.50
2018-04-10T16:13:46.493Z,3.13
2018-04-10T16:16:14.770Z,6.50
2018-04-10T16:18:42.271Z,5.90
2018-04-10T16:21:09.763Z,8.00
2018-04-10T16:23:37.273Z,2.97
2018-04-10T16:26:04.763Z,5.23
2018-04-10T16:28:32.274Z,6.77
2018-04-10T16:30:59.763Z,6.30
2018-04-10T16:33:27.270Z,5.33
2018-04-10T16:35:54.754Z,2.90
2018-04-10T16:38:23.027Z,2.70
2018-04-10T16:40:50.509Z,1.73
2018-04-10T16:43:18.778Z,2.10
2018-04-10T16:45:46.261Z,5.97
2018-04-10T16:48:14.535Z,2.37
2018-04-10T16:50:42.022Z,4.27
2018-04-10T16:53:10.313Z,6.00
2018-04-10T16:55:38.571Z,4.83
2018-04-10T16:58:06.084Z,4.83
2018-04-10T17:00:33.584Z,4.47
2018-04-10T17:03:01.100Z,6.90
2018-04-10T17:05:29.371Z,6.50
2018-04-10T17:07:56.899Z,5.57
2018-04-10T17:10:24.397Z,4.80
2018-04-10T17:12:51.902Z,13.07
2018-04-10T17:15:20.186Z,6.47
2018-04-10T17:17:47.730Z,11.50
2018-04-10T17:20:15.215Z,4.73
2018-04-10T17:22:42.730Z,5.50
2018-04-10T17:25:10.233Z,4.60
2018-04-10T17:27:37.744Z,8.10
2018-04-10T17:30:05.296Z,3.90
2018-04-10T17:32:32.788Z,5.63
2018-04-10T17:35:01.178Z,6.13
2018-04-10T17:37:29.434Z,7.57
2018-04-10T17:39:56.943Z,5.13
2018-04-10T17:42:24.431Z,9.00
2018-04-10T17:44:51.961Z,7.57
2018-04-10T17:47:19.456Z,4.80
2018-04-10T17:49:47.738Z,4.40
2018-04-10T17:52:15.990Z,4.03
2018-04-10T17:54:43.502Z,6.73
2018-04-10T17:57:11.760Z,2.40
2018-04-10T17:59:39.263Z,2.33
2018-04-10T18:02:06.756Z,6.30
2018-04-10T18:04:34.300Z,2.73
2018-04-10T18:07:01.807Z,4.60
2018-04-10T18:09:29.311Z,2.63
2018-04-10T18:11:56.798Z,3.20
2018-04-10T18:14:24.325Z,4.30
2018-04-10T18:16:51.810Z,4.13
2018-04-10T18:19:19.319Z,3.20
2018-04-10T18:21:47.593Z,2.50
2018-04-10T18:24:15.894Z,6.63
2018-04-10T18:26:43.418Z,4.70
2018-04-10T18:29:10.926Z,6.80
2018-04-10T18:31:38.453Z,6.53
2018-04-10T18:34:05.960Z,2.77
2018-04-10T18:36:33.484Z,3.03
2018-04-10T18:39:00.981Z,4.37
2018-04-10T18:41:28.505Z,1.83
2018-04-10T18:43:55.978Z,2.50
2018-04-10T18:46:23.928Z,2.30
2018-04-10T18:48:51.440Z,2.63
2018-04-10T18:51:18.944Z,1.80
2018-04-10T18:53:46.436Z,3.23
2018-04-10T18:56:13.949Z,5.97
2018-04-10T18:58:41.447Z,4.20
2018-04-10T19:01:08.966Z,1.70
2018-04-10T19:03:37.228Z,3.20
2018-04-10T19:06:05.208Z,2.40
2018-04-10T19:08:32.714Z,1.67
2018-04-10T19:11:00.227Z,3.37
2018-04-10T19:13:27.705Z,2.07
2018-04-10T19:15:55.222Z,4.17
2018-04-10T19:18:22.800Z,2.53
2018-04-10T19:20:50.301Z,2.83
2018-04-10T19:23:17.802Z,15.33
2018-04-10T19:25:45.316Z,3.30
2018-04-10T19:28:12.811Z,3.57
2018-04-10T19:30:40.354Z,2.33
2018-04-10T19:33:08.530Z,1.73
2018-04-10T19:35:37.015Z,1.90
2018-04-10T19:38:05.299Z,1.40
2018-04-10T19:40:32.807Z,1.40
2018-04-10T19:43:00.347Z,1.27
2018-04-10T19:45:28.638Z,4.60
2018-04-10T19:47:56.927Z,2.20
2018-04-10T19:50:25.200Z,1.80
2018-04-10T19:52:53.518Z,2.83
2018-04-10T19:55:21.028Z,2.33
2018-04-10T19:57:48.542Z,10.60
2018-04-10T20:00:16.034Z,1.60
2018-04-10T20:02:43.546Z,1.30
2018-04-10T20:05:11.035Z,1.37
2018-04-10T20:07:38.548Z,0.80
2018-04-10T20:10:06.038Z,1.60
2018-04-10T20:12:33.548Z,1.27
2018-04-10T20:15:01.040Z,0.90
2018-04-10T20:17:29.323Z,0.90
2018-04-10T20:19:57.586Z,1.93
2018-04-10T20:22:25.104Z,1.70
2018-04-10T20:24:52.594Z,2.50
2018-04-10T20:27:20.204Z,3.83
2018-04-10T20:29:47.694Z,3.90
2018-04-10T20:32:15.976Z,1.93
2018-04-10T20:34:44.237Z,1.87
2018-04-10T20:37:11.750Z,2.13
2018-04-10T20:39:40.030Z,0.93
2018-04-10T20:42:07.535Z,1.43
2018-04-10T20:44:35.042Z,0.73
2018-04-10T20:47:02.544Z,3.30
2018-04-10T20:49:30.831Z,1.17
2018-04-10T20:51:58.336Z,1.40
2018-04-10T20:54:25.870Z,1.23
2018-04-10T20:56:54.127Z,1.50
2018-04-10T20:59:21.639Z,2.03
2018-04-10T21:01:49.905Z,3.00
2018-04-10T21:04:17.427Z,14.50
2018-04-10T21:06:44.950Z,13.63
2018-04-10T21:09:12.460Z,4.27
2018-04-10T21:11:39.959Z,2.33
2018-04-10T21:14:08.865Z,8.33
2018-04-10T21:16:36.463Z,2.07
2018-04-10T21:19:04.756Z,2.10
2018-04-10T21:21:33.017Z,2.30
2018-04-10T21:24:00.526Z,1.40
2018-04-10T21:26:28.786Z,2.07
2018-04-10T21:28:56.307Z,2.23
2018-04-10T21:31:23.843Z,7.53
2018-04-10T21:33:51.331Z,3.37
2018-04-10T21:36:18.817Z,4.70
2018-04-10T21:38:46.326Z,5.03
2018-04-10T21:41:13.814Z,3.83
2018-04-10T21:43:41.942Z,8.27
2018-04-10T21:46:10.227Z,5.90
2018-04-10T21:48:37.731Z,3.17
2018-04-10T21:51:05.243Z,2.60
2018-04-10T21:53:33.494Z,3.40
2018-04-10T21:56:01.002Z,4.80
2018-04-10T21:58:29.257Z,7.27
2018-04-10T22:00:56.766Z,8.10
2018-04-10T22:03:25.023Z,6.73
2018-04-10T22:05:52.537Z,6.13
2018-04-10T22:08:20.039Z,5.93
2018-04-10T22:10:47.540Z,5.70
2018-04-10T22:13:15.033Z,4.63
2018-04-10T22:15:43.317Z,5.07
2018-04-10T22:18:10.886Z,5.53
2018-04-10T22:20:39.192Z,3.60
2018-04-10T22:23:07.464Z,2.87
2018-04-10T22:25:34.989Z,5.70
2018-04-10T22:28:02.515Z,3.70
2018-04-10T22:30:30.805Z,3.40
2018-04-10T22:32:59.080Z,6.00
2018-04-10T22:35:26.603Z,4.03
2018-04-10T22:37:54.101Z,6.93
2018-04-10T22:40:21.610Z,4.30
2018-04-10T22:42:49.103Z,4.90
2018-04-10T22:45:16.614Z,3.73
2018-04-10T22:47:44.864Z,5.33
2018-04-10T22:50:12.380Z,5.30
2018-04-10T22:52:39.867Z,5.13
2018-04-10T22:55:07.345Z,4.40
2018-04-10T22:57:34.872Z,3.63
2018-04-10T23:00:02.360Z,5.13
2018-04-10T23:02:29.867Z,4.27
2018-04-10T23:04:57.370Z,4.30
2018-04-10T23:07:24.890Z,3.00
2018-04-10T23:09:52.387Z,4.80
2018-04-10T23:12:20.084Z,5.83
2018-04-10T23:14:47.589Z,4.10
2018-04-10T23:17:15.130Z,6.57
2018-04-10T23:19:42.640Z,7.53
2018-04-10T23:22:10.958Z,5.40
2018-04-10T23:24:38.480Z,4.43
2018-04-10T23:27:06.013Z,3.40
2018-04-10T23:29:33.536Z,3.80
2018-04-10T23:32:01.071Z,6.27
2018-04-10T23:34:28.805Z,5.90
2018-04-10T23:36:56.365Z,8.47
2018-04-10T23:39:24.655Z,8.80
2018-04-10T23:41:52.966Z,6.60
2018-04-10T23:44:20.572Z,4.00
2018-04-10T23:46:48.394Z,5.60
2018-04-10T23:49:16.700Z,4.97
2018-04-10T23:51:45.027Z,6.50
2018-04-10T23:54:12.554Z,4.93
2018-04-10T23:56:40.886Z,8.60
2018-04-10T23:59:08.413Z,7.87
